Time,TemperatureF,DewpointF,PressureIn,WindDirection,WindDirectionDegrees,WindSpeedMPH,WindSpeedGustMPH,Humidity,HourlyPrecipIn,Conditions,Clouds,dailyrainin,SoftwareType,DateUTC
2013-07-04 00:05:00,76.3,56.3,29.73,NE,34,0.0,0.0,50,0.00,,,0.00,Wunderground v.1.15,2013-07-04 07:05:00,
2013-07-04 00:10:00,76.1,56.1,29.73,SW,218,0.0,3.0,50,0.00,,,0.00,Wunderground v.1.15,2013-07-04 07:10:00,
2013-07-04 00:20:00,76.1,56.1,29.72,SSW,206,1.0,1.0,50,0.00,,,0.00,Wunderground v.1.15,2013-07-04 07:20:00,
2013-07-04 00:35:00,76.1,56.1,29.72,South,183,0.0,2.0,50,0.00,,,0.00,Wunderground v.1.15,2013-07-04 07:35:00,
2013-07-04 00:45:00,75.9,56.5,29.73,South,181,1.0,1.0,51,0.00,,,0.00,Wunderground v.1.15,2013-07-04 07:45:00,
2013-07-04 00:55:00,75.8,56.4,29.73,South,184,1.0,3.0,51,0.00,,,0.00,Wunderground v.1.15,2013-07-04 07:55:00,
2013-07-04 01:05:00,75.8,56.4,29.73,South,190,3.0,4.0,51,0.00,,,0.00,Wunderground v.1.15,2013-07-04 08:05:00,
2013-07-04 01:10:00,75.6,56.2,29.73,SSW,196,2.0,5.0,51,0.00,,,0.00,Wunderground v.1.15,2013-07-04 08:10:00,
2013-07-04 01:15:00,75.3,55.9,29.73,South,188,3.0,5.0,51,0.00,,,0.00,Wunderground v.1.15,2013-07-04 08:15:00,
2013-07-04 01:25:00,75.2,56.4,29.73,South,189,3.0,4.0,52,0.00,,,0.00,Wunderground v.1.15,2013-07-04 08:25:00,
2013-07-04 01:30:00,75.3,57.0,29.73,South,178,4.0,4.0,53,0.00,,,0.00,Wunderground v.1.15,2013-07-04 08:30:00,
2013-07-04 01:45:00,75.0,57.7,29.73,SW,226,0.0,0.0,55,0.00,,,0.00,Wunderground v.1.15,2013-07-04 08:45:00,
2013-07-04 01:50:00,74.6,58.4,29.73,SW,221,1.0,1.0,57,0.00,,,0.00,Wunderground v.1.15,2013-07-04 08:50:00,
2013-07-04 01:55:00,74.5,58.8,29.73,SW,223,2.0,2.0,58,0.00,,,0.00,Wunderground v.1.15,2013-07-04 08:55:00,
2013-07-04 02:05:00,74.2,58.9,29.72,SW,226,0.0,0.0,59,0.00,,,0.00,Wunderground v.1.15,2013-07-04 09:05:00,
2013-07-04 02:10:00,73.9,59.1,29.72,SW,225,0.0,0.0,60,0.00,,,0.00,Wunderground v.1.15,2013-07-04 09:10:00,
2013-07-04 02:20:00,73.6,59.3,29.73,SW,215,2.0,2.0,61,0.00,,,0.00,Wunderground v.1.15,2013-07-04 09:20:00,
2013-07-04 02:25:00,73.5,59.2,29.73,SW,219,1.0,2.0,61,0.00,,,0.00,Wunderground v.1.15,2013-07-04 09:25:00,
2013-07-04 02:30:00,73.5,59.7,29.73,SW,216,1.0,2.0,62,0.00,,,0.00,Wunderground v.1.15,2013-07-04 09:30:00,
2013-07-04 02:40:00,73.5,59.7,29.73,South,184,2.0,2.0,62,0.00,,,0.00,Wunderground v.1.15,2013-07-04 09:40:00,
2013-07-04 02:50:00,73.4,59.1,29.72,South,184,2.0,4.0,61,0.00,,,0.00,Wunderground v.1.15,2013-07-04 09:50:00,
2013-07-04 03:00:00,73.4,59.1,29.72,South,184,1.0,1.0,61,0.00,,,0.00,Wunderground v.1.15,2013-07-04 10:00:00,
2013-07-04 03:05:00,73.4,59.1,29.72,South,184,0.0,1.0,61,0.00,,,0.00,Wunderground v.1.15,2013-07-04 10:05:00,
2013-07-04 03:15:00,73.3,59.5,29.72,South,184,1.0,1.0,62,0.00,,,0.00,Wunderground v.1.15,2013-07-04 10:15:00,
2013-07-04 03:20:00,73.3,59.0,29.72,South,189,2.0,4.0,61,0.00,,,0.00,Wunderground v.1.15,2013-07-04 10:20:00,
2013-07-04 03:30:00,73.3,59.5,29.72,South,186,2.0,2.0,62,0.00,,,0.00,Wunderground v.1.15,2013-07-04 10:30:00,
2013-07-04 03:40:00,73.2,59.4,29.71,South,186,0.0,0.0,62,0.00,,,0.00,Wunderground v.1.15,2013-07-04 10:40:00,
2013-07-04 03:55:00,72.8,59.5,29.70,South,186,0.0,0.0,63,0.00,,,0.00,Wunderground v.1.15,2013-07-04 10:55:00,
2013-07-04 04:04:00,72.6,59.7,29.70,South,186,0.0,0.0,64,0.00,,,0.00,Wunderground v.1.15,2013-07-04 11:04:00,
2013-07-04 04:10:00,72.6,59.7,29.70,South,186,0.0,0.0,64,0.00,,,0.00,Wunderground v.1.15,2013-07-04 11:10:00,
2013-07-04 04:15:00,72.5,60.1,29.71,ENE,76,1.0,1.0,65,0.00,,,0.00,Wunderground v.1.15,2013-07-04 11:15:00,
2013-07-04 04:25:00,72.4,60.4,29.70,ENE,76,0.0,1.0,66,0.00,,,0.00,Wunderground v.1.15,2013-07-04 11:25:00,
2013-07-04 04:30:00,72.2,60.2,29.70,ENE,76,0.0,0.0,66,0.00,,,0.00,Wunderground v.1.15,2013-07-04 11:30:00,
2013-07-04 04:35:00,72.0,60.0,29.71,ENE,76,0.0,0.0,66,0.00,,,0.00,Wunderground v.1.15,2013-07-04 11:35:00,
2013-07-04 04:45:00,71.8,59.8,29.71,ENE,76,0.0,0.0,66,0.00,,,0.00,Wunderground v.1.15,2013-07-04 11:45:00,
2013-07-04 04:55:00,71.2,59.3,29.71,ENE,77,0.0,0.0,66,0.00,,,0.00,Wunderground v.1.15,2013-07-04 11:55:00,
2013-07-04 05:00:00,71.2,59.3,29.71,ENE,77,0.0,0.0,66,0.00,,,0.00,Wunderground v.1.15,2013-07-04 12:00:00,
2013-07-04 05:10:00,70.9,59.0,29.71,ENE,77,0.0,0.0,66,0.00,,,0.00,Wunderground v.1.15,2013-07-04 12:10:00,
2013-07-04 05:15:00,70.8,58.9,29.71,ENE,77,0.0,0.0,66,0.00,,,0.00,Wunderground v.1.15,2013-07-04 12:15:00,
2013-07-04 05:30:00,70.7,58.8,29.71,ENE,77,0.0,0.0,66,0.00,,,0.00,Wunderground v.1.15,2013-07-04 12:30:00,
2013-07-04 05:35:00,71.0,59.9,29.71,East,92,0.0,0.0,68,0.00,,,0.00,Wunderground v.1.15,2013-07-04 12:35:00,
2013-07-04 05:45:00,71.4,59.9,29.71,East,92,0.0,0.0,67,0.00,,,0.00,Wunderground v.1.15,2013-07-04 12:45:00,
2013-07-04 06:00:00,71.2,59.7,29.71,East,92,0.0,0.0,67,0.00,,,0.00,Wunderground v.1.15,2013-07-04 13:00:00,
2013-07-04 06:05:00,71.1,59.6,29.71,East,92,0.0,0.0,67,0.00,,,0.00,Wunderground v.1.15,2013-07-04 13:05:00,
2013-07-04 06:15:00,71.1,60.4,29.71,East,92,0.0,0.0,69,0.00,,,0.00,Wunderground v.1.15,2013-07-04 13:15:00,
2013-07-04 06:25:00,70.8,59.3,29.71,East,92,0.0,0.0,67,0.00,,,0.00,Wunderground v.1.15,2013-07-04 13:25:00,
2013-07-04 06:35:00,70.7,60.0,29.71,East,92,0.0,0.0,69,0.00,,,0.00,Wunderground v.1.15,2013-07-04 13:35:00,
2013-07-04 06:45:00,70.8,60.1,29.71,East,92,0.0,0.0,69,0.00,,,0.00,Wunderground v.1.15,2013-07-04 13:45:00,
2013-07-04 06:55:00,71.3,60.6,29.72,ENE,76,0.0,0.0,69,0.00,,,0.00,Wunderground v.1.15,2013-07-04 13:55:00,
2013-07-04 07:00:00,71.7,60.6,29.72,ENE,76,0.0,0.0,68,0.00,,,0.00,Wunderground v.1.15,2013-07-04 14:00:00,
2013-07-04 07:10:00,72.6,60.6,29.72,ENE,76,0.0,0.0,66,0.00,,,0.00,Wunderground v.1.15,2013-07-04 14:10:00,
2013-07-04 07:20:00,73.0,60.5,29.72,ENE,76,0.0,0.0,65,0.00,,,0.00,Wunderground v.1.15,2013-07-04 14:20:00,
2013-07-04 07:30:00,73.2,60.3,29.72,ENE,76,0.0,0.0,64,0.00,,,0.00,Wunderground v.1.15,2013-07-04 14:30:00,
2013-07-04 07:35:00,73.4,60.5,29.72,ENE,76,0.0,0.0,64,0.00,,,0.00,Wunderground v.1.15,2013-07-04 14:35:00,
2013-07-04 07:45:00,73.9,61.0,29.72,SE,131,0.0,2.0,64,0.00,,,0.00,Wunderground v.1.15,2013-07-04 14:45:00,
2013-07-04 07:54:00,75.2,60.8,29.72,SE,142,0.0,0.0,61,0.00,,,0.00,Wunderground v.1.15,2013-07-04 14:54:00,
2013-07-04 08:00:00,76.4,61.0,29.72,North,350,1.0,4.0,59,0.00,,,0.00,Wunderground v.1.15,2013-07-04 15:00:00,
2013-07-04 08:05:00,77.0,61.1,29.72,NNW,337,2.0,4.0,58,0.00,,,0.00,Wunderground v.1.15,2013-07-04 15:05:00,
2013-07-04 08:15:00,78.0,61.0,29.72,NNW,340,2.0,4.0,56,0.00,,,0.00,Wunderground v.1.15,2013-07-04 15:15:00,
2013-07-04 08:20:00,77.9,60.9,29.72,North,5,3.0,3.0,56,0.00,,,0.00,Wunderground v.1.15,2013-07-04 15:20:00,
2013-07-04 08:30:00,78.8,59.1,29.72,NNW,343,3.0,3.0,51,0.00,,,0.00,Wunderground v.1.15,2013-07-04 15:30:00,
2013-07-04 08:40:00,79.8,61.1,29.72,North,355,2.0,2.0,53,0.00,,,0.00,Wunderground v.1.15,2013-07-04 15:40:00,
2013-07-04 08:45:00,79.8,61.1,29.72,North,355,1.0,2.0,53,0.00,,,0.00,Wunderground v.1.15,2013-07-04 15:45:00,
2013-07-04 08:50:00,80.5,61.3,29.72,North,355,0.0,0.0,52,0.00,,,0.00,Wunderground v.1.15,2013-07-04 15:50:00,
2013-07-04 08:55:00,81.6,61.2,29.72,North,355,0.0,0.0,50,0.00,,,0.00,Wunderground v.1.15,2013-07-04 15:55:00,
2013-07-04 09:00:00,82.0,61.0,29.72,North,355,0.0,4.0,49,0.00,,,0.00,Wunderground v.1.15,2013-07-04 16:00:00,
2013-07-04 09:10:00,82.5,60.8,29.73,SW,231,3.0,3.0,48,0.00,,,0.00,Wunderground v.1.15,2013-07-04 16:10:00,
2013-07-04 09:15:00,82.0,59.8,29.73,SSW,210,2.0,6.0,47,0.00,,,0.00,Wunderground v.1.15,2013-07-04 16:15:00,
2013-07-04 09:25:00,80.8,60.4,29.73,SW,228,2.0,3.0,50,0.00,,,0.00,Wunderground v.1.15,2013-07-04 16:25:00,
2013-07-04 09:30:00,81.4,60.4,29.72,SW,223,1.0,1.0,49,0.00,,,0.00,Wunderground v.1.15,2013-07-04 16:30:00,
2013-07-04 09:44:00,83.4,60.4,29.72,WNW,294,0.0,0.0,46,0.00,,,0.00,Wunderground v.1.15,2013-07-04 16:44:00,
2013-07-04 09:50:00,84.3,60.6,29.72,WNW,290,0.0,0.0,45,0.00,,,0.00,Wunderground v.1.15,2013-07-04 16:50:00,
2013-07-04 09:55:00,84.6,60.3,29.72,SSW,198,1.0,4.0,44,0.00,,,0.00,Wunderground v.1.15,2013-07-04 16:55:00,
2013-07-04 10:05:00,84.9,60.6,29.72,SW,216,3.0,5.0,44,0.00,,,0.00,Wunderground v.1.15,2013-07-04 17:05:00,
2013-07-04 10:15:00,86.1,60.3,29.72,South,186,2.0,3.0,42,0.00,,,0.00,Wunderground v.1.15,2013-07-04 17:15:00,
2013-07-04 10:25:00,87.9,61.3,29.72,South,188,0.0,0.0,41,0.00,,,0.00,Wunderground v.1.15,2013-07-04 17:25:00,
2013-07-04 10:30:00,89.3,59.6,29.71,South,188,0.0,0.0,37,0.00,,,0.00,Wunderground v.1.15,2013-07-04 17:30:00,
2013-07-04 10:40:00,90.1,60.3,29.71,South,190,1.0,3.0,37,0.00,,,0.00,Wunderground v.1.15,2013-07-04 17:40:00,
2013-07-04 10:45:00,90.1,60.3,29.71,SSW,192,2.0,3.0,37,0.00,,,0.00,Wunderground v.1.15,2013-07-04 17:45:00,
2013-07-04 10:54:00,90.4,60.6,29.71,SSW,211,4.0,7.0,37,0.00,,,0.00,Wunderground v.1.15,2013-07-04 17:54:00,
2013-07-04 11:00:00,90.4,60.6,29.71,SW,215,5.0,7.0,37,0.00,,,0.00,Wunderground v.1.15,2013-07-04 18:00:00,
2013-07-04 11:15:00,91.8,60.3,29.71,SSE,166,3.0,3.0,35,0.00,,,0.00,Wunderground v.1.15,2013-07-04 18:15:00,
2013-07-04 11:20:00,92.1,60.5,29.71,SSW,192,3.0,5.0,35,0.00,,,0.00,Wunderground v.1.15,2013-07-04 18:20:00,
2013-07-04 11:30:00,92.9,62.0,29.71,SW,216,2.0,2.0,36,0.00,,,0.00,Wunderground v.1.15,2013-07-04 18:30:00,
2013-07-04 11:35:00,93.6,60.2,29.71,SW,216,1.0,2.0,33,0.00,,,0.00,Wunderground v.1.15,2013-07-04 18:35:00,
2013-07-04 11:44:00,95.1,58.8,29.71,SSW,207,1.0,1.0,30,0.00,,,0.00,Wunderground v.1.15,2013-07-04 18:44:00,
2013-07-04 11:50:00,95.6,61.0,29.71,SSW,194,1.0,1.0,32,0.00,,,0.00,Wunderground v.1.15,2013-07-04 18:50:00,
2013-07-04 12:00:00,96.9,60.3,29.71,East,94,0.0,0.0,30,0.00,,,0.00,Wunderground v.1.15,2013-07-04 19:00:00,
2013-07-04 12:10:00,98.1,60.4,29.71,NNE,30,2.0,3.0,29,0.00,,,0.00,Wunderground v.1.15,2013-07-04 19:10:00,
2013-07-04 12:20:00,98.6,62.7,29.71,NNW,329,4.0,4.0,31,0.00,,,0.00,Wunderground v.1.15,2013-07-04 19:20:00,
2013-07-04 12:35:00,97.9,63.0,29.71,SSW,210,4.0,4.0,32,0.00,,,0.00,Wunderground v.1.15,2013-07-04 19:35:00,
2013-07-04 12:50:00,96.7,60.2,29.71,SSW,211,4.0,8.0,30,0.00,,,0.00,Wunderground v.1.15,2013-07-04 19:50:00,
2013-07-04 13:05:00,94.7,60.3,29.71,SSW,196,6.0,6.0,32,0.00,,,0.00,Wunderground v.1.15,2013-07-04 20:05:00,
2013-07-04 13:10:00,95.1,60.6,29.71,SSW,207,5.0,5.0,32,0.00,,,0.00,Wunderground v.1.15,2013-07-04 20:10:00,
2013-07-04 13:15:00,96.1,60.6,29.70,South,190,4.0,5.0,31,0.00,,,0.00,Wunderground v.1.15,2013-07-04 20:15:00,
2013-07-04 13:20:00,96.1,60.6,29.70,SW,223,4.0,4.0,31,0.00,,,0.00,Wunderground v.1.15,2013-07-04 20:20:00,
2013-07-04 13:30:00,96.5,59.0,29.70,SSW,213,5.0,7.0,29,0.00,,,0.00,Wunderground v.1.15,2013-07-04 20:30:00,
2013-07-04 13:39:00,97.3,59.7,29.69,North,350,3.0,3.0,29,0.00,,,0.00,Wunderground v.1.15,2013-07-04 20:39:00,
2013-07-04 13:45:00,99.4,59.5,29.69,West,271,2.0,3.0,27,0.00,,,0.00,Wunderground v.1.15,2013-07-04 20:45:00,
2013-07-04 13:55:00,101.9,57.1,29.69,NNW,340,2.0,7.0,23,0.00,,,0.00,Wunderground v.1.15,2013-07-04 20:55:00,
2013-07-04 14:05:00,102.9,58.0,29.69,NNW,341,4.0,4.0,23,0.00,,,0.00,Wunderground v.1.15,2013-07-04 21:05:00,
2013-07-04 14:15:00,103.5,57.2,29.69,NW,305,4.0,5.0,22,0.00,,,0.00,Wunderground v.1.15,2013-07-04 21:15:00,
2013-07-04 14:25:00,103.4,55.9,29.68,NNW,338,4.0,4.0,21,0.00,,,0.00,Wunderground v.1.15,2013-07-04 21:25:00,
2013-07-04 14:35:00,103.4,58.4,29.68,North,351,4.0,6.0,23,0.00,,,0.00,Wunderground v.1.15,2013-07-04 21:35:00,
2013-07-04 14:40:00,103.6,58.6,29.68,NW,321,3.0,4.0,23,0.00,,,0.00,Wunderground v.1.15,2013-07-04 21:40:00,
2013-07-04 14:50:00,103.2,55.7,29.67,NNW,333,5.0,6.0,21,0.00,,,0.00,Wunderground v.1.15,2013-07-04 21:50:00,
2013-07-04 15:00:00,103.4,54.5,29.67,NNW,344,6.0,7.0,20,0.00,,,0.00,Wunderground v.1.15,2013-07-04 22:00:00,
2013-07-04 15:20:00,103.6,57.3,29.66,WNW,296,4.0,4.0,22,0.00,,,0.00,Wunderground v.1.15,2013-07-04 22:20:00,
2013-07-04 15:30:00,104.0,57.6,29.66,NW,312,3.0,4.0,22,0.00,,,0.00,Wunderground v.1.15,2013-07-04 22:30:00,
2013-07-04 15:40:00,104.1,56.4,29.66,NW,311,4.0,4.0,21,0.00,,,0.00,Wunderground v.1.15,2013-07-04 22:40:00,
2013-07-04 15:45:00,104.1,57.7,29.66,NNW,346,4.0,4.0,22,0.00,,,0.00,Wunderground v.1.15,2013-07-04 22:45:00,
2013-07-04 15:54:00,103.7,56.1,29.66,North,355,3.0,3.0,21,0.00,,,0.00,Wunderground v.1.15,2013-07-04 22:54:00,
2013-07-04 16:00:00,103.6,56.0,29.65,West,277,4.0,6.0,21,0.00,,,0.00,Wunderground v.1.15,2013-07-04 23:00:00,
2013-07-04 16:10:00,103.8,54.8,29.65,NW,315,3.0,3.0,20,0.00,,,0.00,Wunderground v.1.15,2013-07-04 23:10:00,
2013-07-04 16:20:00,102.9,55.4,29.65,SSW,205,1.0,3.0,21,0.00,,,0.00,Wunderground v.1.15,2013-07-04 23:20:00,
2013-07-04 16:25:00,100.9,55.1,29.65,SSW,210,3.0,12.0,22,0.00,,,0.00,Wunderground v.1.15,2013-07-04 23:25:00,
2013-07-04 16:35:00,96.5,54.9,29.64,SW,220,11.0,11.0,25,0.00,,,0.00,Wunderground v.1.15,2013-07-04 23:35:00,
2013-07-04 16:40:00,96.2,55.8,29.64,SSW,198,11.0,11.0,26,0.00,,,0.00,Wunderground v.1.15,2013-07-04 23:40:00,
2013-07-04 16:45:00,96.5,57.1,29.64,SSW,196,10.0,11.0,27,0.00,,,0.00,Wunderground v.1.15,2013-07-04 23:45:00,
2013-07-04 16:55:00,98.0,58.3,29.64,WNW,294,2.0,5.0,27,0.00,,,0.00,Wunderground v.1.15,2013-07-04 23:55:00,
2013-07-04 17:05:00,98.3,55.3,29.64,SSW,208,4.0,10.0,24,0.00,,,0.00,Wunderground v.1.15,2013-07-05 00:05:00,
2013-07-04 17:15:00,96.3,55.8,29.64,SSW,201,6.0,14.0,26,0.00,,,0.00,Wunderground v.1.15,2013-07-05 00:15:00,
2013-07-04 17:25:00,93.8,55.8,29.64,South,190,11.0,12.0,28,0.00,,,0.00,Wunderground v.1.15,2013-07-05 00:25:00,
2013-07-04 17:30:00,94.3,57.2,29.64,SSW,197,11.0,11.0,29,0.00,,,0.00,Wunderground v.1.15,2013-07-05 00:30:00,
2013-07-04 17:50:00,92.3,55.4,29.63,SSW,204,9.0,10.0,29,0.00,,,0.00,Wunderground v.1.15,2013-07-05 00:50:00,
2013-07-04 18:00:00,91.5,55.7,29.63,SW,222,10.0,10.0,30,0.00,,,0.00,Wunderground v.1.15,2013-07-05 01:00:00,
2013-07-04 18:10:00,91.0,55.3,29.63,SSW,213,10.0,10.0,30,0.00,,,0.00,Wunderground v.1.15,2013-07-05 01:10:00,
2013-07-04 18:15:00,90.6,54.9,29.63,SW,219,10.0,10.0,30,0.00,,,0.00,Wunderground v.1.15,2013-07-05 01:15:00,
2013-07-04 18:30:00,88.9,55.2,29.63,SSW,200,11.0,11.0,32,0.00,,,0.00,Wunderground v.1.15,2013-07-05 01:30:00,
2013-07-04 18:35:00,88.3,54.7,29.62,SW,221,12.0,12.0,32,0.00,,,0.00,Wunderground v.1.15,2013-07-05 01:35:00,
2013-07-04 18:45:00,86.8,53.4,29.62,SW,225,13.0,22.0,32,0.00,,,0.00,Wunderground v.1.15,2013-07-05 01:45:00,
2013-07-04 18:55:00,86.3,52.1,29.63,SW,226,12.0,18.0,31,0.00,,,0.00,Wunderground v.1.15,2013-07-05 01:55:00,
2013-07-04 19:05:00,85.7,51.6,29.63,SSW,213,13.0,15.0,31,0.00,,,0.00,Wunderground v.1.15,2013-07-05 02:05:00,
2013-07-04 19:10:00,85.7,51.6,29.63,SSW,196,13.0,13.0,31,0.00,,,0.00,Wunderground v.1.15,2013-07-05 02:10:00,
2013-07-04 19:20:00,83.9,51.7,29.63,SSW,204,13.0,17.0,33,0.00,,,0.00,Wunderground v.1.15,2013-07-05 02:20:00,
2013-07-04 19:30:00,83.0,52.5,29.63,SSW,200,12.0,16.0,35,0.00,,,0.00,Wunderground v.1.15,2013-07-05 02:30:00,
2013-07-04 19:50:00,81.9,53.8,29.64,SSW,208,12.0,12.0,38,0.00,,,0.00,Wunderground v.1.15,2013-07-05 02:50:00,
2013-07-04 19:55:00,81.8,52.2,29.64,SW,219,11.0,12.0,36,0.00,,,0.00,Wunderground v.1.15,2013-07-05 02:55:00,
2013-07-04 20:05:00,81.5,52.0,29.64,West,261,10.0,10.0,36,0.00,,,0.00,Wunderground v.1.15,2013-07-05 03:05:00,
2013-07-04 20:15:00,80.9,51.4,29.65,SW,228,11.0,11.0,36,0.00,,,0.00,Wunderground v.1.15,2013-07-05 03:15:00,
2013-07-04 20:25:00,80.8,50.6,29.65,SW,219,9.0,9.0,35,0.00,,,0.00,Wunderground v.1.15,2013-07-05 03:25:00,
2013-07-04 20:35:00,80.8,50.6,29.65,SW,215,9.0,11.0,35,0.00,,,0.00,Wunderground v.1.15,2013-07-05 03:35:00,
2013-07-04 20:40:00,80.7,50.5,29.65,SW,218,10.0,13.0,35,0.00,,,0.00,Wunderground v.1.15,2013-07-05 03:40:00,
2013-07-04 21:05:00,80.3,50.9,29.66,SW,223,12.0,12.0,36,0.00,,,0.00,Wunderground v.1.15,2013-07-05 04:05:00,
2013-07-04 21:10:00,80.0,50.6,29.66,SW,214,12.0,12.0,36,0.00,,,0.00,Wunderground v.1.15,2013-07-05 04:10:00,
2013-07-04 21:25:00,79.1,51.3,29.66,SSW,211,11.0,11.0,38,0.00,,,0.00,Wunderground v.1.15,2013-07-05 04:25:00,
2013-07-04 21:30:00,78.9,51.1,29.67,SSW,207,10.0,10.0,38,0.00,,,0.00,Wunderground v.1.15,2013-07-05 04:30:00,
2013-07-04 21:44:00,77.9,50.9,29.67,SSW,211,10.0,10.0,39,0.00,,,0.00,Wunderground v.1.15,2013-07-05 04:44:00,
2013-07-04 21:50:00,76.9,50.1,29.67,SW,234,11.0,11.0,39,0.00,,,0.00,Wunderground v.1.15,2013-07-05 04:50:00,
2013-07-04 22:00:00,76.0,49.9,29.67,SW,215,14.0,14.0,40,0.00,,,0.00,Wunderground v.1.15,2013-07-05 05:00:00,
2013-07-04 22:20:00,75.0,47.7,29.67,SSW,202,14.0,14.0,38,0.00,,,0.00,Wunderground v.1.15,2013-07-05 05:20:00,
2013-07-04 22:30:00,75.0,47.0,29.67,SW,217,12.0,12.0,37,0.00,,,0.00,Wunderground v.1.15,2013-07-05 05:30:00,
2013-07-04 22:35:00,75.1,47.0,29.67,SSW,210,13.0,16.0,37,0.00,,,0.00,Wunderground v.1.15,2013-07-05 05:35:00,
2013-07-04 22:44:00,75.2,47.1,29.67,SW,217,12.0,15.0,37,0.00,,,0.00,Wunderground v.1.15,2013-07-05 05:44:00,
2013-07-04 22:50:00,75.4,46.6,29.67,SSW,206,11.0,11.0,36,0.00,,,0.00,Wunderground v.1.15,2013-07-05 05:50:00,
2013-07-04 23:00:00,75.1,47.0,29.67,SSW,204,9.0,14.0,37,0.00,,,0.00,Wunderground v.1.15,2013-07-05 06:00:00,
2013-07-04 23:10:00,74.2,46.2,29.66,SW,236,13.0,13.0,37,0.00,,,0.00,Wunderground v.1.15,2013-07-05 06:10:00,
2013-07-04 23:24:00,74.1,46.2,29.66,SW,220,13.0,14.0,37,0.00,,,0.00,Wunderground v.1.15,2013-07-05 06:24:00,
2013-07-04 23:30:00,74.4,46.4,29.66,SSW,205,13.0,13.0,37,0.00,,,0.00,Wunderground v.1.15,2013-07-05 06:30:00,
2013-07-04 23:35:00,74.7,46.0,29.66,SSW,197,13.0,13.0,36,0.00,,,0.00,Wunderground v.1.15,2013-07-05 06:35:00,
2013-07-04 23:45:00,74.6,45.9,29.66,SSW,199,12.0,13.0,36,0.00,,,0.00,Wunderground v.1.15,2013-07-05 06:45:00,
2013-07-04 23:54:00,74.4,45.0,29.66,SW,220,10.0,11.0,35,0.00,,,0.00,Wunderground v.1.15,2013-07-05 06:54:00,